AirNav   Air Wisconsin Up To $57,000 Bonus
 
 1252 users online  

CL71 Hughes/Corporate Heliport
Los Angeles, California, USA

GOING TO LOS ANGELES?


FAA INFORMATION EFFECTIVE 05 DECEMBER 2019

Location

FAA Identifier: CL71
Lat/Long: 33-57-58.2000N 118-25-29.1000W
33-57.970000N 118-25.485000W
33.9661667,-118.4247500
(estimated)
Elevation: 75 ft. / 23 m (estimated)
Variation: 14E (1980)
From city: 11 miles SW of LOS ANGELES, CA
Time zone: UTC -8 (UTC -7 during Daylight Saving Time)
Zip code: 90045

Heliport Operations

Heliport use: Private use. Permission required prior to landing
Activation date: 07/1986
Control tower: no
ARTCC: LOS ANGELES CENTER
FSS: HAWTHORNE FLIGHT SERVICE STATION
Attendance: UNATNDD
Wind indicator: yes
Segmented circle: no
Lights: FOR PERIMETER LGTS CALL 818-375-4501 DURG NML BUS HRS.

Heliport Communications

WX ASOS at LAX (1.6 nm SE): PHONE 310-568-1486
WX ASOS at SMO (3 nm NW): PHONE 310-392-6453
WX ASOS at HHR (5 nm SE): PHONE 310-973-8930
WX AWOS-3PT at CPM (10 nm SE): 127.150 (310-631-4958)
WX ASOS at BUR (14 nm N): PHONE 818-841-1384
WX ASOS at VNY (15 nm N): PHONE 818-904-9213
WX ASOS at LGB (16 nm SE): PHONE 562-424-0572
WX AWOS-3PT at WHP (18 nm N): 132.1 (818-899-9820)

Nearby radio navigation aids

VOR radial/distance  VOR name  Freq  Var
LAXr355/2.0LOS ANGELES VORTAC113.6015E
SMOr134/3.1SANTA MONICA VOR/DME110.8015E
VNYr153/15.8VAN NUYS VOR/DME113.1015E
SLIr286/21.4SEAL BEACH VORTAC115.7015E
VTUr091/32.3VENTURA VOR/DME108.2015E
POMr243/32.4POMONA VORTAC110.4015E
FIMr121/32.6FILLMORE VORTAC112.5015E
SXCr345/35.5SANTA CATALINA VORTAC111.4015E
CMAr099/36.4CAMARILLO VOR/DME115.8015E
ELBr283/38.7EL TORO VOR/DME117.2014E

Heliport Services

Runway Information

Helipad H1

Dimensions: 120 x 60 ft. / 37 x 18 m
Surface: concrete
Runway edge lights: PERI
Latitude: 33-57.970000N
Longitude: 118-25.485000W
Elevation: 75.0 ft.
Traffic pattern: leftleft

Heliport Ownership and Management from official FAA records

Ownership: Privately-owned
Owner: LOYOLA MARYMOUNT UNIVERSITY
1 LMU DRIVE
LOS ANGELES, CA 90045
Phone (310) 338-5389
Manager: MIKE WONG
1 LMU DRIVE
LOS ANGELES, CA 90045
Phone (310) 338-5389

Additional Remarks

FOR CD CTC LOS ANGELES ARTCC AT 661-575-2079.

Instrument Procedures

There are no published instrument procedures at CL71.

Some nearby airports with instrument procedures:

KLAX - Los Angeles International Airport (2 nm SE)
KSMO - Santa Monica Municipal Airport (3 nm NW)
KHHR - Jack Northrop Field/Hawthorne Municipal Airport (5 nm SE)
KTOA - Zamperini Field Airport (11 nm SE)
KBUR - Bob Hope Airport (14 nm N)
KVNY - Van Nuys Airport (15 nm N)
KLGB - Long Beach Airport (Daugherty Field) (16 nm SE)
KWHP - Whiteman Airport (18 nm N)
 
Loc | Ops | Rwys | IFR | FBO | Links
Com | Nav | Svcs | Stats | Notes
Area around CL71 (Hughes/Corporate Heliport)
 
Road maps at: MapQuest Bing Google
 
Aerial photo
No photo
 
Sectional chart

 
Airport distance calculator
Flying to Hughes/Corporate Heliport? Find the distance to fly.

From to CL71

Sunrise and sunset
Times for 11-Dec-2019
 Local
(UTC-8)
 Zulu
(UTC)
Morning civil twilight06:2214:22
Sunrise06:5014:50
Sunset16:4400:44
Evening civil twilight17:1201:12

Current date and time
Zulu (UTC)  11-Dec-2019 17:18:49
Local (UTC-8)  11-Dec-2019 09:18:49
 
METAR
KLAX 
3nm SE 
111653Z VRB04KT 10SM FEW090 SCT160 BKN250 15/07 A3022 RMK AO2 SLP233 T01500072 $
KSMO 
3nm NW 
111651Z 00000KT 10SM CLR 13/08 A3022 RMK AO2 SLP233 T01280078
KHHR 
5nm SE 
111653Z 00000KT 10SM CLR 13/06 A3023 RMK AO2 SLP235 T01280061
KCQT 
11nm NE 
111652Z AUTO 00000KT 10SM CLR 14/07 A3022 RMK AO2 SLP231 T01440067
KTOA 
12nm SE 
111652Z 00000KT 10SM SCT180 12/08 A3023
KBUR 
14nm N 
111653Z 00000KT 10SM CLR 12/03 A3021 RMK AO2 SLP225 T01170028
KVNY 
15nm N 
111651Z 00000KT 9SM CLR 11/07 A3022 RMK AO2 SLP230 T01060067
KLGB 
16nm SE 
111653Z 32004KT 6SM HZ CLR 12/09 A3023 RMK AO2 SLP234 T01170089
KWHP 
17nm N 
111655Z 00000KT 10SM SKC 13/00 A3025
TAF
KLAX 
3nm SE 
111501Z 1115/1218 VRB03KT P6SM FEW008 BKN200 FM111700 VRB03KT P6SM SCT200 FM112100 25008KT P6SM SCT200 FM120400 VRB03KT P6SM SCT200
KSMO 
3nm NW 
111138Z 1112/1212 VRB05KT P6SM SCT200 FM112100 23008KT P6SM SCT200 FM120300 VRB03KT P6SM SCT200 FM121000 VRB03KT 6SM BR SCT007 SCT200
KBUR 
14nm N 
111138Z 1112/1212 VRB05KT P6SM SCT200 FM112100 17007KT P6SM SCT200 FM120300 VRB05KT P6SM SCT200
KVNY 
15nm N 
111138Z 1112/1212 VRB03KT P6SM SCT200 FM112200 14006KT P6SM SCT200 FM120300 VRB03KT P6SM SCT200
KLGB 
16nm SE 
111353Z 1114/1212 VRB03KT P6SM FEW009 FM112000 20007KT P6SM SCT200 FM120000 29007KT P6SM SCT200 FM120400 VRB03KT P6SM SCT200 FM120600 VRB03KT 5SM BR SCT008 FM120900 VRB03KT 1SM BR OVC007
NOTAMs
Click for the latest NOTAMs
NOTAMs are issued by the DoD/FAA and will open in a separate window not controlled by AirNav.

 

 
 

Would you like to see your business listed on this page?

 If your business provides an interesting product or service to pilots, flight crews, aircraft, or users of the Hughes/Corporate Heliport, you should consider listing it here.  To start the listing process, click on the button below
 
Add a business
 

Other Pages about Hughes/Corporate Heliport

Update a link
 
Copyright © AirNav, LLC. All rights reserved. Privacy Policy  Contact